createdAt,value
2023-03-22T00:00:38.615Z,9
2023-03-22T00:01:46.654Z,9
2023-03-22T00:02:55.230Z,11
2023-03-22T00:04:03.608Z,11
2023-03-22T00:05:11.846Z,11
2023-03-22T00:06:20.419Z,13.3
2023-03-22T00:07:28.736Z,13.3
2023-03-22T00:08:37.071Z,13.3
2023-03-22T00:09:45.613Z,11.8
2023-03-22T00:10:53.958Z,11.8
2023-03-22T00:12:02.264Z,11.8
2023-03-22T00:13:10.816Z,12.2
2023-03-22T00:14:19.132Z,12.2
2023-03-22T00:15:27.462Z,12.2
2023-03-22T00:16:35.997Z,13.3
2023-03-22T00:17:44.334Z,13.3
2023-03-22T00:18:52.666Z,13.3
2023-03-22T00:20:01.216Z,13.1
2023-03-22T00:21:09.532Z,13.1
2023-03-22T00:22:17.875Z,13.1
2023-03-22T00:23:26.418Z,13.5
2023-03-22T00:24:34.746Z,13.5
2023-03-22T00:25:43.064Z,13.5
2023-03-22T00:26:51.659Z,13.1
2023-03-22T00:27:59.927Z,13.1
2023-03-22T00:29:08.251Z,13.1
2023-03-22T00:30:16.793Z,14.6
2023-03-22T00:31:25.229Z,14.6
2023-03-22T00:32:33.451Z,14.6
2023-03-22T00:33:42.026Z,14.6
2023-03-22T00:34:50.310Z,14.6
2023-03-22T00:35:58.647Z,14.6
2023-03-22T00:37:07.201Z,14.8
2023-03-22T00:38:15.528Z,14.8
2023-03-22T00:39:23.853Z,14.8
2023-03-22T00:40:32.409Z,15.2
2023-03-22T00:41:40.739Z,15.2
2023-03-22T00:42:49.096Z,15.2
2023-03-22T00:43:57.608Z,14.9
2023-03-22T00:45:05.927Z,14.9
2023-03-22T00:46:14.441Z,14.9
2023-03-22T00:47:22.809Z,16.700001
2023-03-22T00:48:31.136Z,16.700001
2023-03-22T00:49:39.499Z,16.700001
2023-03-22T00:50:48.027Z,17.299999
2023-03-22T00:51:56.346Z,17.299999
2023-03-22T00:53:04.697Z,17.299999
2023-03-22T00:54:13.224Z,19.200001
2023-03-22T00:55:21.559Z,19.200001
2023-03-22T00:56:29.888Z,19.200001
2023-03-22T00:57:38.451Z,17.9
2023-03-22T00:58:46.776Z,17.9
2023-03-22T00:59:55.084Z,17.9
2023-03-22T01:01:03.684Z,17.200001
2023-03-22T01:02:11.961Z,17.200001
2023-03-22T01:03:20.309Z,17.200001
2023-03-22T01:04:28.829Z,17.9
2023-03-22T01:05:37.152Z,17.9
2023-03-22T01:06:45.493Z,17.9
2023-03-22T01:07:54.035Z,17.799999
2023-03-22T01:09:02.356Z,17.799999
2023-03-22T01:10:10.682Z,17.799999
2023-03-22T01:11:19.217Z,19.299999
2023-03-22T01:12:27.557Z,19.299999
2023-03-22T01:13:35.907Z,19.299999
2023-03-22T01:14:44.445Z,17.6
2023-03-22T01:15:52.770Z,17.6
2023-03-22T01:17:01.100Z,17.6
2023-03-22T01:18:09.651Z,18.799999
2023-03-22T01:19:17.983Z,18.799999
2023-03-22T01:20:26.324Z,18.799999
2023-03-22T01:21:34.857Z,18.6
2023-03-22T01:22:43.193Z,18.6
2023-03-22T01:23:51.537Z,18.6
2023-03-22T01:25:00.055Z,19.700001
2023-03-22T01:26:08.384Z,19.700001
2023-03-22T01:27:17.005Z,19.700001
2023-03-22T01:28:27.131Z,19.299999
2023-03-22T01:29:33.887Z,19.299999
2023-03-22T01:30:42.624Z,19.299999
2023-03-22T01:31:50.735Z,19
2023-03-22T01:32:59.061Z,19
2023-03-22T01:34:07.399Z,19
2023-03-22T01:35:15.926Z,18.6
2023-03-22T01:36:24.267Z,18.6
2023-03-22T01:37:32.635Z,18.6
2023-03-22T01:38:41.164Z,19.299999
2023-03-22T01:39:49.485Z,19.299999
2023-03-22T01:40:57.816Z,19.299999
2023-03-22T01:42:06.361Z,19.799999
2023-03-22T01:43:14.701Z,19.799999
2023-03-22T01:44:23.027Z,19.799999
2023-03-22T01:45:31.556Z,18.799999
2023-03-22T01:46:39.983Z,18.799999
2023-03-22T01:47:48.278Z,18.799999
2023-03-22T01:48:56.807Z,17.9
2023-03-22T01:50:05.130Z,17.9
2023-03-22T01:51:13.483Z,17.9
2023-03-22T01:52:22.033Z,18.200001
2023-03-22T01:53:30.366Z,18.200001
2023-03-22T01:54:38.693Z,18.200001
2023-03-22T01:55:47.242Z,17.299999
2023-03-22T01:56:55.559Z,17.299999
2023-03-22T01:58:03.916Z,17.299999
2023-03-22T01:59:12.463Z,18.9
2023-03-22T02:00:20.798Z,18.9
2023-03-22T02:01:29.164Z,18.9
2023-03-22T02:02:37.728Z,17.200001
2023-03-22T02:03:46.001Z,17.200001
2023-03-22T02:04:54.319Z,17.200001
2023-03-22T02:06:02.863Z,18.799999
2023-03-22T02:07:11.189Z,18.799999
2023-03-22T02:08:19.533Z,18.799999
2023-03-22T02:09:28.059Z,19.9
2023-03-22T02:10:36.418Z,19.9
2023-03-22T02:11:44.726Z,19.9
2023-03-22T02:12:53.261Z,18.299999
2023-03-22T02:14:01.601Z,18.299999
2023-03-22T02:15:09.923Z,18.299999
2023-03-22T02:16:18.531Z,18
2023-03-22T02:17:26.857Z,18
2023-03-22T02:18:35.201Z,18
2023-03-22T02:19:43.693Z,17.4
2023-03-22T02:20:52.008Z,17.4
2023-03-22T02:22:00.347Z,17.4
2023-03-22T02:23:08.892Z,17.4
2023-03-22T02:24:17.224Z,17.4
2023-03-22T02:25:25.544Z,17.4
2023-03-22T02:26:34.091Z,18.5
2023-03-22T02:27:42.436Z,18.5
2023-03-22T02:28:50.758Z,18.5
2023-03-22T02:29:59.280Z,17
2023-03-22T02:31:07.624Z,17
2023-03-22T02:32:15.955Z,17
2023-03-22T02:33:24.489Z,16.1
2023-03-22T02:34:32.842Z,16.1
2023-03-22T02:35:41.173Z,16.1
2023-03-22T02:36:49.680Z,17.799999
2023-03-22T02:37:58.025Z,17.799999
2023-03-22T02:39:06.355Z,17.799999
2023-03-22T02:40:14.895Z,17.4
2023-03-22T02:41:23.233Z,17.4
2023-03-22T02:42:31.554Z,17.4
2023-03-22T02:43:40.100Z,15.6
2023-03-22T02:44:48.438Z,15.6
2023-03-22T02:45:56.763Z,15.6
2023-03-22T02:47:05.304Z,15.7
2023-03-22T02:48:13.678Z,15.7
2023-03-22T02:49:21.970Z,15.7
2023-03-22T02:50:30.548Z,15.5
2023-03-22T02:51:38.819Z,15.5
2023-03-22T02:52:47.153Z,15.5
2023-03-22T02:53:55.688Z,16.6
2023-03-22T02:55:04.009Z,16.6
2023-03-22T02:56:12.340Z,16.6
2023-03-22T02:57:20.894Z,15.3
2023-03-22T02:58:29.229Z,15.3
2023-03-22T02:59:37.543Z,15.3
2023-03-22T03:00:46.129Z,17.700001
2023-03-22T03:01:54.455Z,17.700001
2023-03-22T03:03:02.760Z,17.700001
2023-03-22T03:04:11.297Z,16.9
2023-03-22T03:05:19.623Z,16.9
2023-03-22T03:06:27.980Z,16.9
2023-03-22T03:07:36.483Z,18
2023-03-22T03:08:44.813Z,18
2023-03-22T03:09:53.147Z,18
2023-03-22T03:11:01.687Z,16.1
2023-03-22T03:12:10.022Z,16.1
2023-03-22T03:13:18.352Z,16.1
2023-03-22T03:14:26.891Z,16.4
2023-03-22T03:15:35.220Z,16.4
2023-03-22T03:16:43.587Z,16.4
2023-03-22T03:17:52.098Z,17.6
2023-03-22T03:19:00.424Z,17.6
2023-03-22T03:20:08.753Z,17.6
2023-03-22T03:21:17.287Z,16.299999
2023-03-22T03:22:25.659Z,16.299999
2023-03-22T03:23:33.957Z,16.299999
2023-03-22T03:24:42.504Z,18
2023-03-22T03:25:50.829Z,18
2023-03-22T03:26:59.148Z,18
2023-03-22T03:28:07.706Z,17.4
2023-03-22T03:29:16.048Z,17.4
2023-03-22T03:30:24.381Z,17.4
2023-03-22T03:31:32.966Z,17.4
2023-03-22T03:32:41.258Z,17.4
2023-03-22T03:33:49.571Z,17.4
2023-03-22T03:34:58.128Z,15.2
2023-03-22T03:36:06.487Z,15.2
2023-03-22T03:37:14.830Z,15.2
2023-03-22T03:38:23.373Z,17.5
2023-03-22T03:39:31.685Z,17.5
2023-03-22T03:40:40.269Z,17.5
2023-03-22T03:41:48.532Z,15.6
2023-03-22T03:42:57.696Z,15.6
2023-03-22T03:44:06.033Z,15.6
2023-03-22T03:45:14.569Z,14.9
2023-03-22T03:46:22.890Z,14.9
2023-03-22T03:47:31.231Z,14.9
2023-03-22T03:48:39.772Z,16.700001
2023-03-22T03:49:48.087Z,16.700001
2023-03-22T03:50:56.430Z,16.700001
2023-03-22T03:52:04.969Z,15.2
2023-03-22T03:53:13.299Z,15.2
2023-03-22T03:54:21.658Z,15.2
2023-03-22T03:55:30.157Z,13.8
2023-03-22T03:56:38.481Z,13.8
2023-03-22T03:57:46.829Z,13.8
2023-03-22T03:58:55.359Z,15.4
2023-03-22T04:00:03.682Z,15.4
2023-03-22T04:01:12.008Z,15.4
2023-03-22T04:02:20.721Z,13.9
2023-03-22T04:03:28.894Z,13.9
2023-03-22T04:04:37.252Z,13.9
2023-03-22T04:05:45.756Z,15.8
2023-03-22T04:06:54.070Z,15.8
2023-03-22T04:08:02.411Z,15.8
2023-03-22T04:09:10.956Z,13.2
2023-03-22T04:10:19.309Z,13.2
2023-03-22T04:11:27.618Z,13.2
2023-03-22T04:12:36.158Z,13.3
2023-03-22T04:13:44.489Z,13.3
2023-03-22T04:14:52.844Z,13.3
2023-03-22T04:16:01.383Z,13
2023-03-22T04:17:09.707Z,13
2023-03-22T04:18:18.054Z,13
2023-03-22T04:19:26.579Z,13.4
2023-03-22T04:20:34.910Z,13.4
2023-03-22T04:21:43.275Z,13.4
2023-03-22T04:22:51.789Z,13.7
2023-03-22T04:24:00.132Z,13.7
2023-03-22T04:25:08.440Z,13.7
2023-03-22T04:26:16.993Z,14.7
2023-03-22T04:27:25.313Z,14.7
2023-03-22T04:28:33.650Z,14.7
2023-03-22T04:29:42.174Z,20.200001
2023-03-22T04:30:50.556Z,20.200001
2023-03-22T04:31:58.825Z,20.200001
2023-03-22T04:33:28.376Z,14.9
2023-03-22T04:34:41.170Z,14.9
2023-03-22T04:35:51.550Z,14.9
2023-03-22T04:37:00.153Z,14.8
2023-03-22T04:38:08.495Z,14.8
2023-03-22T04:39:16.817Z,14.8
2023-03-22T04:40:25.361Z,14.9
2023-03-22T04:41:33.751Z,14.9
2023-03-22T04:42:42.031Z,14.9
2023-03-22T04:43:50.568Z,16.700001
2023-03-22T04:44:58.895Z,16.700001
2023-03-22T04:46:07.250Z,16.700001
2023-03-22T04:47:15.783Z,12.9
2023-03-22T04:48:24.099Z,12.9
2023-03-22T04:49:32.483Z,12.9
2023-03-22T04:50:41.311Z,14.7
2023-03-22T04:51:49.346Z,14.7
2023-03-22T04:52:57.680Z,14.7
2023-03-22T04:54:06.223Z,11.9
2023-03-22T04:55:14.546Z,11.9
2023-03-22T04:56:22.887Z,11.9
2023-03-22T04:57:31.450Z,13.7
2023-03-22T04:58:39.749Z,13.7
2023-03-22T04:59:48.116Z,13.7
2023-03-22T05:00:56.698Z,13.3
2023-03-22T05:02:05.022Z,13.3
2023-03-22T05:03:13.427Z,13.3
2023-03-22T05:04:21.901Z,14.5
2023-03-22T05:05:30.224Z,14.5
2023-03-22T05:06:38.562Z,14.5
2023-03-22T05:07:47.141Z,12.9
2023-03-22T05:08:55.464Z,12.9
2023-03-22T05:10:03.791Z,12.9
2023-03-22T05:11:12.343Z,13.2
2023-03-22T05:12:21.069Z,13.2
2023-03-22T05:13:29.418Z,13.2
2023-03-22T05:14:38.015Z,12.9
2023-03-22T05:15:46.304Z,12.9
2023-03-22T05:16:54.627Z,12.9
2023-03-22T05:18:03.395Z,13.3
2023-03-22T05:19:11.671Z,13.3
2023-03-22T05:20:20.333Z,13.3
2023-03-22T05:21:28.872Z,11.7
2023-03-22T05:22:37.215Z,11.7
2023-03-22T05:23:45.543Z,11.7
2023-03-22T05:24:54.090Z,12.5
2023-03-22T05:26:02.408Z,12.5
2023-03-22T05:27:10.748Z,12.5
2023-03-22T05:28:19.285Z,11.2
2023-03-22T05:29:27.649Z,11.2
2023-03-22T05:30:35.945Z,11.2
2023-03-22T05:31:44.527Z,12.7
2023-03-22T05:32:52.860Z,12.7
2023-03-22T05:34:01.181Z,12.7
2023-03-22T05:35:09.722Z,11.5
2023-03-22T05:36:18.048Z,11.5
2023-03-22T05:37:26.404Z,11.5
2023-03-22T05:38:34.919Z,13.7
2023-03-22T05:39:43.265Z,13.7
2023-03-22T05:40:51.577Z,13.7
2023-03-22T05:42:00.108Z,12.6
2023-03-22T05:43:08.434Z,12.6
2023-03-22T05:44:16.782Z,12.6
2023-03-22T05:45:25.340Z,10.7
2023-03-22T05:46:33.759Z,10.7
2023-03-22T05:47:42.039Z,10.7
2023-03-22T05:48:50.536Z,12.3
2023-03-22T05:49:58.888Z,12.3
2023-03-22T05:51:07.223Z,12.3
2023-03-22T05:52:15.782Z,12.6
2023-03-22T05:53:24.118Z,12.6
2023-03-22T05:54:32.443Z,12.6
2023-03-22T05:55:40.983Z,12.9
2023-03-22T05:56:49.323Z,12.9
2023-03-22T05:57:57.679Z,12.9
2023-03-22T05:59:06.224Z,13.3
2023-03-22T06:00:14.551Z,13.3
2023-03-22T06:01:22.914Z,13.3
2023-03-22T06:02:31.438Z,11.7
2023-03-22T06:03:39.781Z,11.7
2023-03-22T06:04:48.084Z,11.7
2023-03-22T06:05:56.631Z,11.6
2023-03-22T06:07:04.955Z,11.6
2023-03-22T06:08:13.306Z,11.6
2023-03-22T06:09:21.819Z,13
2023-03-22T06:10:30.159Z,13
2023-03-22T06:11:38.501Z,13
2023-03-22T06:12:47.044Z,10.6
2023-03-22T06:13:55.357Z,10.6
2023-03-22T06:15:03.691Z,10.6
2023-03-22T06:16:12.276Z,11.2
2023-03-22T06:17:20.625Z,11.2
2023-03-22T06:18:28.891Z,11.2
2023-03-22T06:19:37.426Z,11.2
2023-03-22T06:20:45.759Z,11.2
2023-03-22T06:21:54.088Z,11.2
2023-03-22T06:23:02.673Z,13
2023-03-22T06:24:11.025Z,13
2023-03-22T06:25:19.375Z,13
2023-03-22T06:26:27.883Z,13.5
2023-03-22T06:27:36.220Z,13.5
2023-03-22T06:28:44.552Z,13.5
2023-03-22T06:29:53.136Z,13.9
2023-03-22T06:31:01.490Z,13.9
2023-03-22T06:32:09.792Z,13.9
2023-03-22T06:33:18.359Z,12.9
2023-03-22T06:34:26.655Z,12.9
2023-03-22T06:35:35.017Z,12.9
2023-03-22T06:36:43.629Z,107.09999
2023-03-22T06:37:51.982Z,107.09999
2023-03-22T06:39:00.299Z,107.09999
2023-03-22T06:40:08.847Z,21.9
2023-03-22T06:41:17.197Z,21.9
2023-03-22T06:42:25.557Z,21.9
2023-03-22T06:43:34.098Z,36
2023-03-22T06:44:42.423Z,36
2023-03-22T06:45:50.790Z,36
2023-03-22T06:46:59.334Z,51.299999
2023-03-22T06:48:07.679Z,51.299999
2023-03-22T06:49:16.001Z,51.299999
2023-03-22T06:50:24.509Z,24.4
2023-03-22T06:51:32.835Z,24.4
2023-03-22T06:52:41.172Z,24.4
2023-03-22T06:53:49.710Z,17.799999
2023-03-22T06:54:58.069Z,17.799999
2023-03-22T06:56:06.413Z,17.799999
2023-03-22T06:57:14.956Z,40
2023-03-22T06:58:23.336Z,40
2023-03-22T06:59:31.667Z,40
2023-03-22T07:00:40.444Z,29.4
2023-03-22T07:01:48.603Z,29.4
2023-03-22T07:02:56.921Z,29.4
2023-03-22T07:04:05.487Z,26.5
2023-03-22T07:05:13.813Z,26.5
2023-03-22T07:06:22.135Z,26.5
2023-03-22T07:07:30.679Z,13.2
2023-03-22T07:08:38.995Z,13.2
2023-03-22T07:09:47.314Z,13.2
2023-03-22T07:10:55.854Z,11.5
2023-03-22T07:12:04.185Z,11.5
2023-03-22T07:13:12.543Z,11.5
2023-03-22T07:14:21.059Z,12.8
2023-03-22T07:15:29.383Z,12.8
2023-03-22T07:16:37.716Z,12.8
2023-03-22T07:17:46.261Z,46
2023-03-22T07:18:54.592Z,46
2023-03-22T07:20:02.924Z,46
2023-03-22T07:21:11.512Z,14.3
2023-03-22T07:22:19.816Z,14.3
2023-03-22T07:23:28.157Z,14.3
2023-03-22T07:24:42.297Z,10.6
2023-03-22T07:25:45.012Z,10.6
2023-03-22T07:26:53.358Z,10.6
2023-03-22T07:28:01.904Z,12.7
2023-03-22T07:29:10.258Z,12.7
2023-03-22T07:30:18.566Z,12.7
2023-03-22T07:31:27.100Z,9.3
2023-03-22T07:32:35.508Z,9.3
2023-03-22T07:33:43.793Z,9.3
2023-03-22T07:34:52.327Z,10
2023-03-22T07:36:00.800Z,10
2023-03-22T07:37:08.994Z,10
2023-03-22T07:38:17.526Z,10.8
2023-03-22T07:39:25.857Z,10.8
2023-03-22T07:40:34.193Z,10.8
2023-03-22T07:41:42.752Z,10.2
2023-03-22T07:42:51.077Z,10.2
2023-03-22T07:44:11.359Z,10.2
2023-03-22T07:45:08.064Z,12.2
2023-03-22T07:46:16.309Z,12.2
2023-03-22T07:47:39.808Z,12.2
2023-03-22T07:48:33.172Z,12.6
2023-03-22T07:49:41.496Z,12.6
2023-03-22T07:50:49.829Z,12.6
2023-03-22T07:51:58.382Z,10.4
2023-03-22T07:53:06.740Z,10.4
2023-03-22T07:54:27.222Z,10.4
2023-03-22T07:55:23.544Z,8.8
2023-03-22T07:56:31.920Z,8.8
2023-03-22T07:57:40.234Z,8.8
2023-03-22T07:58:48.819Z,9
2023-03-22T07:59:57.111Z,9
2023-03-22T08:01:05.455Z,9
2023-03-22T08:02:14.106Z,9.8
2023-03-22T08:03:22.460Z,9.8
2023-03-22T08:04:30.854Z,9.8
2023-03-22T08:05:39.468Z,8.4
2023-03-22T08:06:47.575Z,8.4
2023-03-22T08:07:55.898Z,8.4
2023-03-22T08:09:04.468Z,9.7
2023-03-22T08:10:12.812Z,9.7
2023-03-22T08:11:21.110Z,9.7
2023-03-22T08:12:29.656Z,10.6
2023-03-22T08:13:38.073Z,10.6
2023-03-22T08:14:46.334Z,10.6
2023-03-22T08:15:54.918Z,8
2023-03-22T08:17:03.190Z,8
2023-03-22T08:18:11.541Z,8
2023-03-22T08:19:20.074Z,8.3
2023-03-22T08:20:28.398Z,8.3
2023-03-22T08:21:36.734Z,8.3
2023-03-22T08:22:45.297Z,9.7
2023-03-22T08:23:53.635Z,9.7
2023-03-22T08:25:02.048Z,9.7
2023-03-22T08:26:10.543Z,8.5
2023-03-22T08:27:18.884Z,8.5
2023-03-22T08:28:27.319Z,8.5
2023-03-22T08:29:35.750Z,9.9
2023-03-22T08:30:44.085Z,9.9
2023-03-22T08:31:52.444Z,9.9
2023-03-22T08:33:00.956Z,8.6
2023-03-22T08:34:09.297Z,8.6
2023-03-22T08:35:17.633Z,8.6
2023-03-22T08:36:26.143Z,8
2023-03-22T08:37:34.481Z,8
2023-03-22T08:38:42.868Z,8
2023-03-22T08:39:51.414Z,9.9
2023-03-22T08:40:59.780Z,9.9
2023-03-22T08:42:08.113Z,9.9
2023-03-22T08:43:16.650Z,9
2023-03-22T08:44:24.974Z,9
2023-03-22T08:45:33.317Z,9
2023-03-22T08:46:41.886Z,8
2023-03-22T08:47:50.222Z,8
2023-03-22T08:48:58.546Z,8
2023-03-22T08:50:07.087Z,8
2023-03-22T08:51:15.413Z,8
2023-03-22T08:52:23.769Z,8
2023-03-22T08:53:32.310Z,9.3
2023-03-22T08:54:40.634Z,9.3
2023-03-22T08:55:48.962Z,9.3
2023-03-22T08:56:57.520Z,8.8
2023-03-22T08:58:05.832Z,8.8
2023-03-22T08:59:14.163Z,8.8
2023-03-22T09:00:22.704Z,8.1
2023-03-22T09:01:31.216Z,8.1
2023-03-22T09:02:39.388Z,8.1
2023-03-22T09:03:48.938Z,9.3
2023-03-22T09:04:56.306Z,9.3
2023-03-22T09:06:04.600Z,9.3
2023-03-22T09:07:13.148Z,8.8
2023-03-22T09:08:21.489Z,8.8
2023-03-22T09:09:29.805Z,8.8
2023-03-22T09:10:38.343Z,7.2
2023-03-22T09:11:46.683Z,7.2
2023-03-22T09:12:55.049Z,7.2
2023-03-22T09:14:03.562Z,8.8
2023-03-22T09:15:11.891Z,8.8
2023-03-22T09:16:20.232Z,8.8
2023-03-22T09:17:28.784Z,6.9
2023-03-22T09:18:37.126Z,6.9
2023-03-22T09:19:45.455Z,6.9
2023-03-22T09:20:53.978Z,8.7
2023-03-22T09:22:02.341Z,8.7
2023-03-22T09:23:10.692Z,8.7
2023-03-22T09:24:19.230Z,7.5
2023-03-22T09:25:27.583Z,7.5
2023-03-22T09:26:35.899Z,7.5
2023-03-22T09:27:44.482Z,8.3
2023-03-22T09:28:52.857Z,8.3
2023-03-22T09:30:01.161Z,8.3
2023-03-22T09:31:09.812Z,8.1
2023-03-22T09:32:18.020Z,8.1
2023-03-22T09:33:26.380Z,8.1
2023-03-22T09:34:34.911Z,8.2
2023-03-22T09:35:43.591Z,8.2
2023-03-22T09:36:51.599Z,8.2
2023-03-22T09:38:00.149Z,8.6
2023-03-22T09:39:08.458Z,8.6
2023-03-22T09:40:16.780Z,8.6
2023-03-22T09:41:25.322Z,20
2023-03-22T09:42:33.673Z,20
2023-03-22T09:43:42.013Z,20
2023-03-22T09:44:50.587Z,8.8
2023-03-22T09:45:58.891Z,8.8
2023-03-22T09:47:07.266Z,8.8
2023-03-22T09:48:15.877Z,178.1
2023-03-22T09:49:24.225Z,178.1
2023-03-22T09:50:32.497Z,178.1
2023-03-22T09:51:41.027Z,7.2
2023-03-22T09:52:49.374Z,7.2
2023-03-22T09:53:57.730Z,7.2
2023-03-22T09:55:06.247Z,4.9
2023-03-22T09:56:14.592Z,4.9
2023-03-22T09:57:22.935Z,4.9
2023-03-22T09:58:31.550Z,6
2023-03-22T09:59:39.802Z,6
2023-03-22T10:00:48.261Z,6
2023-03-22T10:01:56.859Z,5.8
2023-03-22T10:03:05.013Z,5.8
2023-03-22T10:04:13.428Z,5.8
2023-03-22T10:05:22.029Z,5.2
2023-03-22T10:06:30.410Z,5.2
2023-03-22T10:07:38.805Z,5.2
2023-03-22T10:08:47.345Z,5.8
2023-03-22T10:09:55.698Z,5.8
2023-03-22T10:11:04.032Z,5.8
2023-03-22T10:12:12.555Z,8.9
2023-03-22T10:13:20.893Z,8.9
2023-03-22T10:14:29.220Z,8.9
2023-03-22T10:15:38.016Z,5.3
2023-03-22T10:16:46.172Z,5.3
2023-03-22T10:17:54.487Z,5.3
2023-03-22T10:19:03.033Z,4.6
2023-03-22T10:20:11.381Z,4.6
2023-03-22T10:21:19.717Z,4.6
2023-03-22T10:22:28.255Z,6.4
2023-03-22T10:23:36.589Z,6.4
2023-03-22T10:24:44.904Z,6.4
2023-03-22T10:25:53.475Z,5.4
2023-03-22T10:27:01.800Z,5.4
2023-03-22T10:28:10.137Z,5.4
2023-03-22T10:29:18.673Z,6.4
2023-03-22T10:30:27.022Z,6.4
2023-03-22T10:31:35.398Z,6.4
2023-03-22T10:32:56.602Z,13.2
2023-03-22T10:33:52.226Z,13.2
2023-03-22T10:35:00.549Z,13.2
2023-03-22T10:36:09.089Z,4.7
2023-03-22T10:37:17.437Z,4.7
2023-03-22T10:38:25.760Z,4.7
2023-03-22T10:39:34.322Z,6.2
2023-03-22T10:40:42.649Z,6.2
2023-03-22T10:41:50.962Z,6.2
2023-03-22T10:42:59.547Z,5.9
2023-03-22T10:44:07.919Z,5.9
2023-03-22T10:45:16.233Z,5.9
2023-03-22T10:46:24.781Z,5.3
2023-03-22T10:47:33.104Z,5.3
2023-03-22T10:48:41.479Z,5.3
2023-03-22T10:49:49.982Z,5.7
2023-03-22T10:50:58.290Z,5.7
2023-03-22T10:52:06.653Z,5.7
2023-03-22T10:53:15.190Z,5
2023-03-22T10:54:25.712Z,5
2023-03-22T10:55:31.868Z,5
2023-03-22T10:56:40.402Z,4.2
2023-03-22T10:57:48.749Z,4.2
2023-03-22T10:58:57.075Z,4.2
2023-03-22T11:00:05.611Z,4.7
2023-03-22T11:01:14.083Z,4.7
2023-03-22T11:02:22.692Z,4.7
2023-03-22T11:03:31.746Z,3.3
2023-03-22T11:04:45.934Z,3.3
2023-03-22T11:05:54.804Z,3.3
2023-03-22T11:07:03.370Z,3.3
2023-03-22T11:08:11.709Z,3.3
2023-03-22T11:09:20.041Z,3.3
2023-03-22T11:10:28.645Z,3.6
2023-03-22T11:11:37.021Z,3.6
2023-03-22T11:12:45.416Z,3.6
2023-03-22T11:13:54.073Z,5.4
2023-03-22T11:15:02.451Z,5.4
2023-03-22T11:16:10.863Z,5.4
2023-03-22T11:17:19.439Z,4.8
2023-03-22T11:18:27.791Z,4.8
2023-03-22T11:19:36.129Z,4.8
2023-03-22T11:20:44.749Z,4.8
2023-03-22T11:21:53.005Z,4.8
2023-03-22T11:23:01.346Z,4.8
2023-03-22T11:24:09.910Z,3.1
2023-03-22T11:25:18.240Z,3.1
2023-03-22T11:26:27.466Z,3.1
2023-03-22T11:27:35.998Z,4.4
2023-03-22T11:28:44.336Z,4.4
2023-03-22T11:29:52.673Z,4.4
2023-03-22T11:31:01.204Z,3.9
2023-03-22T11:32:09.553Z,3.9
2023-03-22T11:33:17.992Z,3.9
2023-03-22T11:34:26.429Z,5.5
2023-03-22T11:35:34.755Z,5.5
2023-03-22T11:36:43.105Z,5.5
2023-03-22T11:37:51.626Z,3.6
2023-03-22T11:39:04.622Z,3.6
2023-03-22T11:40:28.807Z,3.6
2023-03-22T11:41:40.227Z,3.3
2023-03-22T11:42:48.587Z,3.3
2023-03-22T11:43:56.930Z,3.3
2023-03-22T11:45:05.490Z,3.6
2023-03-22T11:46:13.855Z,3.6
2023-03-22T11:47:22.158Z,3.6
2023-03-22T11:48:30.809Z,3.6
2023-03-22T11:49:39.041Z,3.6
2023-03-22T11:50:47.373Z,3.6
2023-03-22T11:51:55.933Z,2.7
2023-03-22T11:53:04.249Z,2.7
2023-03-22T11:54:12.603Z,2.7
2023-03-22T11:55:21.144Z,2.7
2023-03-22T11:56:29.487Z,2.7
2023-03-22T11:57:40.910Z,2.7
2023-03-22T11:58:49.437Z,2.7
2023-03-22T11:59:57.785Z,2.7
2023-03-22T12:01:06.129Z,2.7
2023-03-22T12:02:14.757Z,4
2023-03-22T12:03:23.149Z,4
2023-03-22T12:04:31.424Z,4
2023-03-22T12:05:40.289Z,4.6
2023-03-22T12:06:48.313Z,4.6
2023-03-22T12:07:56.686Z,4.6
2023-03-22T12:09:09.505Z,3.6
2023-03-22T12:10:17.859Z,3.6
2023-03-22T12:11:26.192Z,3.6
2023-03-22T12:12:34.749Z,3.8
2023-03-22T12:13:43.830Z,3.8
2023-03-22T12:14:52.168Z,3.8
2023-03-22T12:16:00.730Z,3.7
2023-03-22T12:17:09.055Z,3.7
2023-03-22T12:18:17.449Z,3.7
2023-03-22T12:19:25.927Z,3.4
2023-03-22T12:20:34.254Z,3.4
2023-03-22T12:21:42.586Z,3.4
2023-03-22T12:22:51.199Z,2.9
2023-03-22T12:23:59.503Z,2.9
2023-03-22T12:25:07.805Z,2.9
2023-03-22T12:26:16.350Z,3
2023-03-22T12:27:24.677Z,3
2023-03-22T12:28:33.028Z,3
2023-03-22T12:29:41.595Z,2.7
2023-03-22T12:30:49.922Z,2.7
2023-03-22T12:31:58.317Z,2.7
2023-03-22T12:33:06.912Z,2.7
2023-03-22T12:34:15.122Z,2.7
2023-03-22T12:35:23.451Z,2.7
2023-03-22T12:36:31.990Z,2.6
2023-03-22T12:37:40.356Z,2.6
2023-03-22T12:38:48.667Z,2.6
2023-03-22T12:39:57.240Z,3
2023-03-22T12:41:05.549Z,3
2023-03-22T12:42:13.888Z,3
2023-03-22T12:43:22.429Z,3.2
2023-03-22T12:44:30.764Z,3.2
2023-03-22T12:45:39.378Z,3.2
2023-03-22T12:46:47.704Z,2.2
2023-03-22T12:47:56.050Z,2.2
2023-03-22T12:49:04.364Z,2.2
2023-03-22T12:50:12.885Z,2.6
2023-03-22T12:51:21.199Z,2.6
2023-03-22T12:52:32.208Z,2.6
2023-03-22T12:53:38.045Z,1.9
2023-03-22T12:54:46.380Z,1.9
2023-03-22T12:55:54.732Z,1.9
2023-03-22T12:57:03.269Z,2.4
2023-03-22T12:58:11.592Z,2.4
2023-03-22T12:59:19.910Z,2.4
2023-03-22T13:00:28.496Z,2.4
2023-03-22T13:01:36.888Z,2.4
2023-03-22T13:02:45.156Z,2.4
2023-03-22T13:03:53.779Z,2.3
2023-03-22T13:05:01.993Z,2.3
2023-03-22T13:06:10.332Z,2.3
2023-03-22T13:07:18.869Z,4.2
2023-03-22T13:08:27.224Z,4.2
2023-03-22T13:09:35.576Z,4.2
2023-03-22T13:10:44.099Z,2.4
2023-03-22T13:11:53.254Z,2.4
2023-03-22T13:13:00.815Z,2.4
2023-03-22T13:14:09.352Z,2.4
2023-03-22T13:15:17.684Z,2.4
2023-03-22T13:16:26.038Z,2.4
2023-03-22T13:17:34.595Z,2.7
2023-03-22T13:18:42.888Z,2.7
2023-03-22T13:19:51.212Z,2.7
2023-03-22T13:20:59.781Z,3.2
2023-03-22T13:22:08.083Z,3.2
2023-03-22T13:23:16.422Z,3.2
2023-03-22T13:24:24.993Z,1.7
2023-03-22T13:25:33.338Z,1.7
2023-03-22T13:26:41.683Z,1.7
2023-03-22T13:27:50.281Z,3.1
2023-03-22T13:28:58.596Z,3.1
2023-03-22T13:30:06.924Z,3.1
2023-03-22T13:31:15.480Z,3.6
2023-03-22T13:32:23.816Z,3.6
2023-03-22T13:33:32.170Z,3.6
2023-03-22T13:34:40.756Z,1.9
2023-03-22T13:35:49.150Z,1.9
2023-03-22T13:36:57.455Z,1.9
2023-03-22T13:38:06.014Z,2.3
2023-03-22T13:39:14.359Z,2.3
2023-03-22T13:40:22.710Z,2.3
2023-03-22T13:41:31.268Z,1.7
2023-03-22T13:42:39.617Z,1.7
2023-03-22T13:43:48.011Z,1.7
2023-03-22T13:44:56.527Z,3.2
2023-03-22T13:46:04.927Z,3.2
2023-03-22T13:47:13.255Z,3.2
2023-03-22T13:48:21.857Z,2.3
2023-03-22T13:49:30.167Z,2.3
2023-03-22T13:50:38.662Z,2.3
2023-03-22T13:51:47.029Z,1.9
2023-03-22T13:52:55.411Z,1.9
2023-03-22T13:54:03.737Z,1.9
2023-03-22T13:55:12.306Z,1.9
2023-03-22T13:56:20.623Z,1.9
2023-03-22T13:57:28.984Z,1.9
2023-03-22T13:58:37.582Z,2
2023-03-22T13:59:45.952Z,2
2023-03-22T14:00:54.249Z,2
2023-03-22T14:02:02.817Z,2.2
2023-03-22T14:03:11.250Z,2.2
2023-03-22T14:04:19.507Z,2.2
2023-03-22T14:05:28.062Z,2.4
2023-03-22T14:06:36.414Z,2.4
2023-03-22T14:07:44.762Z,2.4
2023-03-22T14:08:53.374Z,1.3
2023-03-22T14:10:01.726Z,1.3
2023-03-22T14:11:10.081Z,1.3
2023-03-22T14:12:18.647Z,1.7
2023-03-22T14:13:27.009Z,1.7
2023-03-22T14:14:35.400Z,1.7
2023-03-22T14:15:43.964Z,2.3
2023-03-22T14:16:52.295Z,2.3
2023-03-22T14:18:00.690Z,2.3
2023-03-22T14:19:09.207Z,1.6
2023-03-22T14:20:17.587Z,1.6
2023-03-22T14:21:25.889Z,1.6
2023-03-22T14:46:42.343Z,1.7
2023-03-22T14:47:50.690Z,1.7
2023-03-22T14:48:59.031Z,1.7
2023-03-22T14:50:07.585Z,2.2
2023-03-22T14:51:15.952Z,2.2
2023-03-22T14:52:25.217Z,2.2
2023-03-22T14:53:33.761Z,2.4
2023-03-22T14:54:42.101Z,2.4
2023-03-22T14:55:50.461Z,2.4
2023-03-22T14:56:59.009Z,1.7
2023-03-22T14:58:07.374Z,1.7
2023-03-22T14:59:15.737Z,1.7
2023-03-22T15:00:24.317Z,2
2023-03-22T15:01:32.669Z,2
2023-03-22T15:02:41.059Z,2
2023-03-22T15:03:49.600Z,2.2
2023-03-22T15:04:57.985Z,2.2
2023-03-22T15:06:06.341Z,2.2
2023-03-22T15:39:19.957Z,0
2023-03-22T15:40:28.308Z,0
2023-03-22T15:41:36.837Z,0
2023-03-22T15:42:45.248Z,3.1
2023-03-22T15:43:53.596Z,3.1
2023-03-22T15:45:01.948Z,3.1
2023-03-22T15:46:10.602Z,2.1
2023-03-22T15:47:18.858Z,2.1
2023-03-22T15:48:27.192Z,2.1
2023-03-22T15:49:35.772Z,1.9
2023-03-22T15:50:44.145Z,1.9
2023-03-22T15:51:52.482Z,1.9
2023-03-22T15:53:01.056Z,2.2
2023-03-22T15:54:09.432Z,2.2
2023-03-22T15:55:17.806Z,2.2
2023-03-22T15:56:29.095Z,2.2
2023-03-22T15:57:34.690Z,2.2
2023-03-22T15:58:43.042Z,2.2
2023-03-22T15:59:51.600Z,2.6
2023-03-22T16:00:59.933Z,2.6
2023-03-22T16:02:08.296Z,2.6
2023-03-22T16:03:16.880Z,2.8
2023-03-22T16:04:25.249Z,2.8
2023-03-22T16:05:33.608Z,2.8
2023-03-22T16:06:42.205Z,1.7
2023-03-22T16:07:50.571Z,1.7
2023-03-22T16:08:58.940Z,1.7
2023-03-22T16:10:07.552Z,2.1
2023-03-22T16:11:15.908Z,2.1
2023-03-22T16:12:24.364Z,2.1
2023-03-22T16:13:32.920Z,1.7